Time;durP1;ratioP1;P1;durP2;ratioP2;P2;SDS_P1;SDS_P2;PMS_P1;PMS_P2;Temp;Humidity;BMP_temperature;BMP_pressure;BME280_temperature;BME280_humidity;BME280_pressure;Samples;Min_cycle;Max_cycle;Signal;HPM_P1;HPM_P2
2022/09/22 00:02:19;;;;;;;2.20;2.05;;;;;;;14.27;100.00;100284.59;5045673;28;20289;-70
2022/09/22 00:04:47;;;;;;;1.75;1.60;;;;;;;14.42;100.00;100290.75;5047368;28;20203;-70
2022/09/22 00:07:14;;;;;;;2.95;2.30;;;;;;;14.41;100.00;100278.59;5045874;28;20200;-70
2022/09/22 00:09:40;;;;;;;2.22;2.13;;;;;;;14.48;100.00;100283.84;5046736;28;20675;-70
2022/09/22 00:12:07;;;;;;;3.05;2.35;;;;;;;14.53;100.00;100289.03;5049384;28;20278;-71
2022/09/22 00:14:34;;;;;;;1.88;1.77;;;;;;;14.50;100.00;100287.31;5009923;28;20210;-71
2022/09/22 00:17:02;;;;;;;2.10;2.00;;;;;;;14.59;100.00;100283.84;5046968;28;20203;-70
2022/09/22 00:19:30;;;;;;;1.80;1.80;;;;;;;14.53;100.00;100278.59;5046325;28;20202;-71
2022/09/22 00:21:59;;;;;;;4.82;2.83;;;;;;;14.44;100.00;100284.69;5047759;28;20204;-71
2022/09/22 00:24:27;;;;;;;2.17;2.08;;;;;;;14.38;100.00;100292.47;5046280;28;20617;-71
2022/09/22 00:26:56;;;;;;;2.95;2.65;;;;;;;14.43;100.00;100289.88;5045325;28;20203;-70
2022/09/22 00:29:23;;;;;;;2.20;2.03;;;;;;;14.14;100.00;100264.56;5046711;28;20203;-70
2022/09/22 00:31:51;;;;;;;2.10;2.00;;;;;;;13.87;100.00;100214.94;5045299;28;20668;-71
2022/09/22 00:34:20;;;;;;;2.22;2.13;;;;;;;14.22;100.00;100294.16;5021319;28;20195;-71
2022/09/22 00:36:48;;;;;;;2.42;2.22;;;;;;;14.29;100.00;100301.13;5046299;28;20710;-70
2022/09/22 00:39:18;;;;;;;2.92;2.72;;;;;;;14.47;100.00;100291.66;5045708;28;20207;-70
2022/09/22 00:41:46;;;;;;;2.40;2.30;;;;;;;14.36;100.00;100305.53;5046720;28;20588;-71
2022/09/22 00:44:31;;;;;;;2.80;2.60;;;;;;;14.41;100.00;100302.06;5045589;28;20205;-71
2022/09/22 00:47:04;;;;;;;2.92;2.72;;;;;;;14.21;100.00;100281.97;5026158;28;20663;-70
2022/09/22 00:49:37;;;;;;;2.70;2.50;;;;;;;14.28;100.00;100298.50;5044899;28;20203;-71
2022/09/22 00:52:05;;;;;;;2.58;2.38;;;;;;;14.14;100.00;100293.25;5047653;28;20414;-71
2022/09/22 00:54:34;;;;;;;2.65;2.50;;;;;;;14.07;100.00;100288.88;5044903;28;20205;-71
2022/09/22 00:57:07;;;;;;;2.78;2.63;;;;;;;14.12;100.00;100286.28;5045542;28;20656;-70
2022/09/22 00:59:35;;;;;;;4.65;2.88;;;;;;;14.02;100.00;100285.34;5045620;28;20203;-71
2022/09/22 01:02:02;;;;;;;3.00;2.80;;;;;;;13.87;100.00;100295.75;5049167;28;20214;-70
2022/09/22 01:04:30;;;;;;;3.70;3.42;;;;;;;13.88;100.00;100300.06;5051337;28;20623;-70
2022/09/22 01:06:58;;;;;;;2.90;2.65;;;;;;;13.93;100.00;100289.66;5032624;28;20199;-71
2022/09/22 01:09:27;;;;;;;3.40;3.10;;;;;;;13.91;100.00;100279.25;5049038;28;20208;-71
2022/09/22 01:11:55;;;;;;;3.10;2.80;;;;;;;14.04;100.00;100293.19;5015419;28;20695;-71
2022/09/22 01:14:34;;;;;;;3.50;2.92;;;;;;;14.01;100.00;100285.38;5044645;28;20208;-71
2022/09/22 01:17:09;;;;;;;4.50;3.00;;;;;;;14.08;100.00;100287.13;5044704;28;20207;-70
2022/09/22 01:20:02;;;;;;;3.15;2.95;;;;;;;13.72;100.00;100253.94;5044651;28;20199;-71
2022/09/22 01:22:55;;;;;;;3.35;3.10;;;;;;;13.87;100.00;100300.94;4982342;28;20202;-70
2022/09/22 01:25:49;;;;;;;5.05;2.90;;;;;;;13.82;100.00;100300.03;4982495;28;20189;-71
2022/09/22 01:28:47;;;;;;;3.30;3.00;;;;;;;13.52;100.00;100251.22;4905975;29;20204;-71
2022/09/22 01:31:22;;;;;;;4.13;2.80;;;;;;;13.67;100.00;100298.22;4899865;29;20647;-72
2022/09/22 01:33:57;;;;;;;2.45;2.35;;;;;;;13.48;100.00;100272.94;4905777;29;20243;-72
2022/09/22 01:36:33;;;;;;;3.30;3.10;;;;;;;13.40;100.00;100291.13;4905680;29;20222;-71
2022/09/22 01:39:10;;;;;;;3.13;2.92;;;;;;;13.39;100.00;100271.13;4905821;29;20203;-71
2022/09/22 01:41:51;;;;;;;2.70;2.50;;;;;;;13.43;100.00;100286.78;4904776;29;20620;-71
2022/09/22 01:44:25;;;;;;;5.18;3.22;;;;;;;13.21;100.00;100273.59;4905645;29;20214;-72
2022/09/22 01:46:56;;;;;;;2.97;2.75;;;;;;;13.34;100.00;100282.38;4905346;29;20235;-71
2022/09/22 01:49:26;;;;;;;4.82;2.63;;;;;;;13.36;100.00;100296.28;4905557;29;20208;-71
2022/09/22 01:51:58;;;;;;;3.25;2.70;;;;;;;13.34;100.00;100293.66;4908296;29;20192;-71
2022/09/22 01:54:31;;;;;;;3.45;3.15;;;;;;;13.41;100.00;100305.84;4865406;29;20311;-71
2022/09/22 01:57:05;;;;;;;3.20;2.88;;;;;;;13.13;100.00;100277.00;4905992;29;20213;-71
2022/09/22 01:59:37;;;;;;;3.10;2.90;;;;;;;13.35;100.00;100303.22;4894483;28;20479;-71
2022/09/22 02:02:10;;;;;;;3.08;2.78;;;;;;;13.35;100.00;100308.44;4966282;28;20242;-70
2022/09/22 02:04:44;;;;;;;3.13;2.92;;;;;;;13.30;100.00;100315.34;4976580;28;20719;-70
2022/09/22 02:07:16;;;;;;;2.60;2.50;;;;;;;13.13;100.00;100314.31;5043665;28;20619;-70
2022/09/22 02:09:48;;;;;;;3.38;3.17;;;;;;;13.21;100.00;100302.25;5044021;28;20203;-70
2022/09/22 02:12:17;;;;;;;3.45;3.25;;;;;;;13.03;100.00;100315.06;5042358;28;20200;-70
2022/09/22 02:14:44;;;;;;;3.45;3.15;;;;;;;12.88;100.00;100291.50;5044079;28;20641;-70
2022/09/22 02:17:13;;;;;;;4.70;2.92;;;;;;;13.08;100.00;100308.19;5045885;28;20215;-69
2022/09/22 02:19:41;;;;;;;3.28;3.08;;;;;;;13.00;100.00;100301.16;5043915;28;20975;-72
2022/09/22 02:22:11;;;;;;;4.47;3.35;;;;;;;13.07;100.00;100314.25;5047296;28;20207;-70
2022/09/22 02:24:39;;;;;;;3.53;2.90;;;;;;;12.98;100.00;100314.19;5050680;28;20199;-69
2022/09/22 02:27:12;;;;;;;4.63;3.60;;;;;;;13.09;100.00;100316.88;5050562;28;20613;-69
2022/09/22 02:29:43;;;;;;;4.28;3.85;;;;;;;12.83;100.00;100288.00;5050605;28;20208;-70
2022/09/22 02:32:15;;;;;;;3.70;3.40;;;;;;;12.91;100.00;100322.78;4986714;28;20309;-70
2022/09/22 02:34:42;;;;;;;5.25;2.85;;;;;;;12.62;100.00;100295.59;4981624;28;20240;-70
2022/09/22 02:37:19;;;;;;;3.42;3.13;;;;;;;12.85;100.00;100317.50;4955000;28;20221;-70
2022/09/22 02:39:56;;;;;;;4.90;3.22;;;;;;;12.86;100.00;100311.44;4958324;28;20267;-69
2022/09/22 02:42:29;;;;;;;2.72;2.60;;;;;;;12.71;100.00;100300.88;4904925;29;20204;-70
2022/09/22 02:45:04;;;;;;;3.85;3.55;;;;;;;12.58;100.00;100288.63;4904741;29;20681;-69
2022/09/22 02:47:36;;;;;;;2.55;2.42;;;;;;;12.73;100.00;100312.19;4904711;29;20693;-69
2022/09/22 02:50:08;;;;;;;3.22;3.03;;;;;;;12.74;100.00;100313.91;4905978;29;20617;-70
2022/09/22 02:52:36;;;;;;;3.13;2.92;;;;;;;12.71;100.00;100311.28;4908697;29;20264;-70
2022/09/22 02:55:04;;;;;;;2.97;2.85;;;;;;;12.71;100.00;100313.91;4908481;29;20212;-70
2022/09/22 02:57:30;;;;;;;3.20;3.00;;;;;;;12.73;100.00;100318.28;4936079;28;20202;-70
2022/09/22 02:59:57;;;;;;;3.10;2.90;;;;;;;12.67;100.00;100312.13;4985699;28;20209;-70
2022/09/22 03:02:24;;;;;;;5.32;3.08;;;;;;;12.66;100.00;100310.41;4952535;28;20221;-70
2022/09/22 03:04:52;;;;;;;3.05;2.85;;;;;;;12.55;100.00;100275.59;4985712;28;20228;-71
2022/09/22 03:07:19;;;;;;;3.47;3.22;;;;;;;12.65;100.00;100311.25;5013946;28;20199;-72
2022/09/22 03:09:46;;;;;;;3.03;2.85;;;;;;;12.64;100.00;100307.75;5029340;28;20210;-72
2022/09/22 03:12:12;;;;;;;2.95;2.75;;;;;;;12.70;100.00;100301.78;5030960;28;20618;-72
2022/09/22 03:14:39;;;;;;;3.08;2.78;;;;;;;12.66;100.00;100313.00;5046807;28;20611;-73
2022/09/22 03:17:06;;;;;;;2.72;2.63;;;;;;;12.72;100.00;100315.66;5027117;28;20574;-72
2022/09/22 03:19:33;;;;;;;3.22;3.03;;;;;;;12.55;100.00;100301.59;5028703;28;20225;-72
2022/09/22 03:22:01;;;;;;;2.90;2.70;;;;;;;12.59;100.00;100298.19;5011066;28;20265;-72
2022/09/22 03:24:28;;;;;;;4.13;3.25;;;;;;;12.68;100.00;100327.75;5046651;28;21688;-70
2022/09/22 03:26:54;;;;;;;3.55;3.35;;;;;;;12.57;100.00;100310.28;5047521;28;20199;-72
2022/09/22 03:29:21;;;;;;;3.63;3.30;;;;;;;12.57;100.00;100294.69;5046557;28;20204;-72
2022/09/22 03:31:48;;;;;;;5.65;3.00;;;;;;;12.72;100.00;100319.13;5046417;28;20207;-72
2022/09/22 03:34:15;;;;;;;3.50;3.15;;;;;;;12.70;100.00;100319.97;5046710;28;20775;-72
2022/09/22 03:36:42;;;;;;;2.60;2.50;;;;;;;12.49;100.00;100291.13;5045775;28;20231;-70
2022/09/22 03:39:10;;;;;;;3.08;2.80;;;;;;;12.73;100.00;100323.47;5011761;28;20282;-72
2022/09/22 03:41:37;;;;;;;4.13;3.70;;;;;;;12.49;100.00;100297.19;5012317;28;20202;-72
2022/09/22 03:44:04;;;;;;;3.10;2.75;;;;;;;12.61;100.00;100330.28;5046633;28;20575;-72
2022/09/22 03:46:31;;;;;;;2.95;2.75;;;;;;;12.58;100.00;100332.84;5046702;28;20242;-73
2022/09/22 03:48:58;;;;;;;5.53;3.95;;;;;;;12.48;100.00;100325.81;5047307;28;20206;-72
2022/09/22 03:51:25;;;;;;;3.35;3.15;;;;;;;12.22;100.00;100325.50;5048820;28;20293;-72
2022/09/22 03:53:53;;;;;;;2.85;2.75;;;;;;;12.21;100.00;100326.34;5045612;28;20648;-72
2022/09/22 03:56:21;;;;;;;3.40;3.20;;;;;;;12.31;100.00;100323.88;5046185;28;20227;-72
2022/09/22 03:58:48;;;;;;;3.28;3.00;;;;;;;12.31;100.00;100323.88;5010538;28;20604;-72
2022/09/22 04:01:15;;;;;;;3.45;2.80;;;;;;;12.20;100.00;100309.88;5046196;28;20223;-72
2022/09/22 04:03:42;;;;;;;3.30;3.10;;;;;;;12.26;100.00;100335.97;5044959;28;20752;-72
2022/09/22 04:06:09;;;;;;;3.15;2.92;;;;;;;12.20;100.00;100330.66;5047553;28;20897;-72
2022/09/22 04:08:36;;;;;;;3.25;3.05;;;;;;;11.89;100.00;100318.13;5051022;28;20199;-72
2022/09/22 04:11:05;;;;;;;3.53;3.33;;;;;;;12.08;100.00;100327.03;5049422;28;20650;-72
2022/09/22 04:13:34;;;;;;;3.00;2.80;;;;;;;11.67;100.00;100303.06;5045283;28;20254;-72
2022/09/22 04:16:01;;;;;;;3.40;3.20;;;;;;;11.92;100.00;100339.84;5026773;28;20204;-72
2022/09/22 04:18:28;;;;;;;3.17;2.92;;;;;;;12.04;100.00;100336.53;5045534;28;20203;-72
2022/09/22 04:20:56;;;;;;;3.30;3.08;;;;;;;12.05;100.00;100314.91;5046364;28;20200;-72
2022/09/22 04:23:24;;;;;;;3.60;3.30;;;;;;;12.11;100.00;100324.47;5045274;28;20226;-72
2022/09/22 04:25:51;;;;;;;2.95;2.75;;;;;;;11.95;100.00;100304.38;5045008;28;20191;-72
2022/09/22 04:28:18;;;;;;;3.13;2.92;;;;;;;12.03;100.00;100345.16;5045058;28;20199;-72
2022/09/22 04:30:47;;;;;;;3.50;3.30;;;;;;;11.83;100.00;100302.47;5045218;28;20642;-72
2022/09/22 04:33:13;;;;;;;3.55;3.25;;;;;;;12.04;100.00;100346.06;5047112;28;20196;-72
2022/09/22 04:35:40;;;;;;;3.30;3.10;;;;;;;11.94;100.00;100347.66;5045883;28;20534;-72
2022/09/22 04:38:07;;;;;;;3.33;3.03;;;;;;;12.14;100.00;100346.19;5045626;28;20597;-72
2022/09/22 04:40:34;;;;;;;3.47;3.25;;;;;;;12.17;100.00;100338.44;5048380;28;20274;-71
2022/09/22 04:43:01;;;;;;;3.85;3.45;;;;;;;12.19;100.00;100338.47;5011562;28;20207;-72
2022/09/22 04:45:28;;;;;;;2.58;2.47;;;;;;;12.40;100.00;100339.59;5026353;28;20236;-71
2022/09/22 04:47:56;;;;;;;3.05;2.85;;;;;;;12.61;100.00;100333.75;5045614;28;20203;-71
2022/09/22 04:50:23;;;;;;;2.80;2.60;;;;;;;12.26;100.00;100299.56;5047714;28;20206;-73
2022/09/22 04:52:52;;;;;;;2.92;2.75;;;;;;;12.49;100.00;100340.53;5043266;28;20211;-73
2022/09/22 04:55:20;;;;;;;3.40;3.20;;;;;;;12.56;100.00;100337.13;5044140;28;20226;-73
2022/09/22 04:57:48;;;;;;;3.45;3.20;;;;;;;12.72;100.00;100333.88;5025015;28;20211;-73
2022/09/22 05:00:15;;;;;;;3.05;2.90;;;;;;;12.91;100.00;100334.03;5045314;28;20195;-73
2022/09/22 05:02:42;;;;;;;5.57;4.47;;;;;;;12.87;100.00;100336.63;5044688;28;20594;-73
2022/09/22 05:05:10;;;;;;;3.22;3.03;;;;;;;13.04;100.00;100335.03;5009379;28;20211;-73
2022/09/22 05:07:40;;;;;;;3.28;3.08;;;;;;;13.14;100.00;100341.22;5045871;28;20368;-73
2022/09/22 05:10:08;;;;;;;3.53;2.90;;;;;;;13.06;100.00;100333.31;5050356;28;20211;-72
2022/09/22 05:12:38;;;;;;;2.90;2.70;;;;;;;12.97;100.00;100334.97;5015813;28;20246;-72
2022/09/22 05:15:05;;;;;;;2.67;2.53;;;;;;;13.02;100.00;100341.94;5015693;28;20223;-73
2022/09/22 05:17:34;;;;;;;2.90;2.70;;;;;;;12.88;100.00;100333.16;5044949;28;20196;-73
2022/09/22 05:20:02;;;;;;;4.10;2.95;;;;;;;12.99;100.00;100344.53;5050678;28;20257;-73
2022/09/22 05:22:30;;;;;;;7.03;3.20;;;;;;;13.12;100.00;100343.84;5031974;28;20203;-73
2022/09/22 05:24:57;;;;;;;2.80;2.60;;;;;;;12.78;100.00;100333.91;5050916;28;20211;-73
2022/09/22 05:27:24;;;;;;;2.63;2.53;;;;;;;12.72;100.00;100333.88;5050938;28;20229;-73
2022/09/22 05:29:51;;;;;;;6.45;5.25;;;;;;;12.86;100.00;100329.66;5050248;28;20213;-72
2022/09/22 05:32:17;;;;;;;41.20;16.90;;;;;;;12.92;100.00;100329.72;5015597;28;20207;-72
2022/09/22 05:34:44;;;;;;;3.70;3.50;;;;;;;13.00;100.00;100315.06;5035944;28;20242;-72
2022/09/22 05:37:11;;;;;;;2.72;2.58;;;;;;;12.64;100.00;100260.94;5049329;28;20212;-73
2022/09/22 05:39:39;;;;;;;3.03;2.80;;;;;;;13.16;100.00;100335.16;5049660;28;20203;-73
2022/09/22 05:42:06;;;;;;;3.30;3.05;;;;;;;13.35;100.00;100326.66;5050139;28;20703;-73
2022/09/22 05:44:33;;;;;;;3.60;2.90;;;;;;;13.40;100.00;100340.59;5050808;28;20211;-72
2022/09/22 05:47:00;;;;;;;4.75;3.63;;;;;;;13.05;100.00;100341.13;5050735;28;20226;-72
2022/09/22 05:49:26;;;;;;;2.75;2.55;;;;;;;13.12;100.00;100343.84;5050843;28;20257;-72
2022/09/22 05:51:56;;;;;;;2.65;2.55;;;;;;;12.97;100.00;100324.56;5027824;28;20202;-72
2022/09/22 05:54:23;;;;;;;2.97;2.78;;;;;;;13.04;100.00;100345.47;5016648;28;20309;-72
2022/09/22 05:56:51;;;;;;;3.30;3.10;;;;;;;12.89;100.00;100333.16;5050591;28;20611;-72
2022/09/22 05:59:18;;;;;;;3.10;2.90;;;;;;;13.12;100.00;100349.03;5050793;28;20208;-72
2022/09/22 06:01:45;;;;;;;2.47;2.33;;;;;;;13.10;100.00;100342.94;5050468;28;20215;-73
2022/09/22 06:04:11;;;;;;;2.92;2.55;;;;;;;13.14;100.00;100326.50;5042642;28;20207;-72
2022/09/22 06:06:38;;;;;;;5.72;3.55;;;;;;;13.22;100.00;100345.66;5050212;28;20215;-73
2022/09/22 06:09:05;;;;;;;2.83;2.63;;;;;;;12.96;100.00;100289.84;5050144;28;20211;-71
2022/09/22 06:11:32;;;;;;;2.58;2.42;;;;;;;13.21;100.00;100349.13;5050145;28;20682;-72
2022/09/22 06:14:00;;;;;;;4.07;2.75;;;;;;;13.16;100.00;100344.75;5049820;28;20727;-72
2022/09/22 06:16:27;;;;;;;3.22;2.92;;;;;;;13.01;100.00;100344.56;5048302;28;20257;-71
2022/09/22 06:18:53;;;;;;;3.70;3.40;;;;;;;13.30;100.00;100350.94;5049505;28;20215;-72
2022/09/22 06:21:20;;;;;;;3.10;2.88;;;;;;;13.41;100.00;100347.53;5045515;28;20195;-73
2022/09/22 06:23:47;;;;;;;2.10;2.00;;;;;;;13.39;100.00;100348.38;5050605;28;20671;-76
2022/09/22 06:26:14;;;;;;;2.42;2.22;;;;;;;13.51;100.00;100352.81;5054753;28;20663;-72
2022/09/22 06:28:40;;;;;;;3.28;3.08;;;;;;;13.45;100.00;100350.19;5054897;28;20213;-72
2022/09/22 06:31:09;;;;;;;7.60;2.50;;;;;;;13.65;100.00;100348.59;5054281;28;20207;-72
2022/09/22 06:33:35;;;;;;;3.40;2.70;;;;;;;13.01;100.00;100264.75;5054439;28;20655;-72
2022/09/22 06:36:03;;;;;;;2.28;2.17;;;;;;;13.49;100.00;100345.00;5051867;28;20285;-71
2022/09/22 06:38:31;;;;;;;3.30;3.10;;;;;;;13.44;100.00;100319.78;5053946;28;20589;-71
2022/09/22 06:41:00;;;;;;;3.97;2.95;;;;;;;14.02;100.00;100363.56;5054400;28;20286;-72
2022/09/22 06:43:27;;;;;;;3.55;3.25;;;;;;;14.01;100.00;100355.75;5054193;28;20306;-71
2022/09/22 06:45:54;;;;;;;2.10;2.00;;;;;;;13.97;100.00;100369.63;5053568;28;20227;-71
2022/09/22 06:48:23;;;;;;;3.40;3.10;;;;;;;14.36;100.00;100362.94;5054223;28;20191;-71
2022/09/22 06:50:51;;;;;;;3.50;3.30;;;;;;;14.42;100.00;100348.13;5018374;28;20291;-72
2022/09/22 06:53:19;;;;;;;3.50;3.30;;;;;;;14.59;100.00;100375.19;5053819;28;20471;-71
2022/09/22 06:55:46;;;;;;;3.22;2.92;;;;;;;14.49;100.00;100370.78;5053728;28;20219;-72
2022/09/22 06:58:14;;;;;;;2.85;2.75;;;;;;;14.58;100.00;100366.50;5051540;28;20196;-72
2022/09/22 07:00:42;;;;;;;3.30;3.10;;;;;;;14.73;100.00;100355.22;5053455;28;20199;-71
2022/09/22 07:03:15;;;;;;;3.35;3.08;;;;;;;15.26;100.00;100390.13;5053697;28;20207;-72
2022/09/22 07:05:52;;;;;;;3.08;2.78;;;;;;;15.20;100.00;100390.09;5054025;28;20210;-72
2022/09/22 07:08:19;;;;;;;2.90;2.65;;;;;;;15.27;100.00;100390.97;5053687;28;20743;-72
2022/09/22 07:10:51;;;;;;;3.25;3.05;;;;;;;15.34;100.00;100383.16;5053866;28;20222;-72
2022/09/22 07:13:17;;;;;;;2.85;2.65;;;;;;;15.33;100.00;100383.16;5053830;28;20260;-70
2022/09/22 07:15:44;;;;;;;3.35;3.08;;;;;;;15.16;100.00;100377.91;5053852;28;20293;-70
2022/09/22 07:18:11;;;;;;;2.70;2.60;;;;;;;15.11;100.00;100379.66;5053655;28;20283;-71
2022/09/22 07:20:38;;;;;;;2.45;2.35;;;;;;;15.20;100.00;100379.66;5053357;28;20191;-71
2022/09/22 07:23:17;;;;;;;2.47;2.33;;;;;;;15.26;100.00;100352.69;5053401;28;20257;-70
2022/09/22 07:25:52;;;;;;;2.53;2.40;;;;;;;15.56;100.00;100383.19;5053686;28;20198;-71
2022/09/22 07:28:19;;;;;;;2.22;2.13;;;;;;;15.88;100.00;100386.63;5053263;28;20203;-72
2022/09/22 07:30:47;;;;;;;3.83;2.28;;;;;;;15.97;95.38;100384.03;5018227;28;20195;-77
2022/09/22 07:33:14;;;;;;;2.20;2.10;;;;;;;15.79;96.02;100394.50;5034452;28;20295;-76
2022/09/22 07:35:41;;;;;;;2.67;2.28;;;;;;;15.65;100.00;100320.47;5053116;28;20613;-75
2022/09/22 07:38:10;;;;;;;2.40;2.20;;;;;;;16.10;94.36;100380.50;5052290;28;20627;-72
2022/09/22 07:40:37;;;;;;;2.22;2.10;;;;;;;15.91;93.83;100399.69;5033763;28;20195;-71
2022/09/22 07:43:03;;;;;;;2.30;2.20;;;;;;;16.05;91.37;100397.94;5052642;28;20208;-72
2022/09/22 07:45:30;;;;;;;3.00;2.65;;;;;;;16.09;91.55;100402.28;5051859;28;20231;-73
2022/09/22 07:50:41;;;;;;;2.22;2.13;;;;;;;15.87;91.50;100405.84;5052694;28;20233;-67
2022/09/22 07:53:09;;;;;;;2.20;2.10;;;;;;;16.32;90.60;100400.50;5039135;28;20207;-67
2022/09/22 07:55:37;;;;;;;2.38;2.17;;;;;;;16.27;89.83;100407.47;5017293;28;20226;-69
2022/09/22 07:58:04;;;;;;;4.93;2.22;;;;;;;16.14;91.39;100403.16;5052816;28;20204;-67
2022/09/22 08:00:33;;;;;;;2.35;2.25;;;;;;;15.91;91.10;100385.78;5052509;28;20204;-67
2022/09/22 08:03:00;;;;;;;2.10;2.00;;;;;;;16.02;91.71;100402.31;5052600;28;20241;-67
2022/09/22 08:05:29;;;;;;;3.30;2.17;;;;;;;16.15;91.99;100398.81;5052536;28;20207;-67
2022/09/22 08:07:57;;;;;;;2.55;1.95;;;;;;;16.23;93.06;100399.66;5052797;28;20210;-67
2022/09/22 08:10:25;;;;;;;2.25;2.15;;;;;;;16.19;94.98;100396.19;5052481;28;20203;-67
2022/09/22 08:12:53;;;;;;;4.03;2.13;;;;;;;16.19;93.62;100388.34;5033953;28;20243;-69
2022/09/22 08:15:21;;;;;;;3.53;2.53;;;;;;;16.24;93.18;100393.53;5052297;28;20234;-67
2022/09/22 08:17:48;;;;;;;2.35;2.25;;;;;;;16.06;94.21;100407.53;5052414;28;20344;-66
2022/09/22 08:20:15;;;;;;;2.25;2.15;;;;;;;16.14;90.86;100384.84;5052249;28;20239;-67
2022/09/22 08:22:43;;;;;;;3.88;2.55;;;;;;;16.52;90.77;100389.94;5052154;28;20287;-71
2022/09/22 08:25:11;;;;;;;2.47;2.30;;;;;;;16.52;92.06;100396.91;5052297;28;20203;-71
2022/09/22 08:27:40;;;;;;;2.42;2.33;;;;;;;16.64;91.31;100379.47;5051967;28;20211;-72
2022/09/22 08:30:10;;;;;;;3.75;2.40;;;;;;;16.93;90.49;100389.78;5033583;28;20877;-70
2022/09/22 08:32:37;;;;;;;2.67;2.53;;;;;;;16.89;90.37;100393.28;5052055;28;20212;-72
2022/09/22 08:35:05;;;;;;;2.80;2.60;;;;;;;16.96;88.99;100384.50;5052097;28;20606;-69
2022/09/22 08:37:32;;;;;;;6.40;2.28;;;;;;;16.95;88.07;100385.38;5052140;28;20294;-73
2022/09/22 08:39:58;;;;;;;2.17;2.08;;;;;;;16.73;88.62;100391.66;5052106;28;20257;-71
2022/09/22 08:42:27;;;;;;;5.13;2.17;;;;;;;16.97;88.71;100385.38;5051918;28;20203;-71
2022/09/22 08:45:01;;;;;;;2.65;2.42;;;;;;;17.14;87.65;100383.53;5038060;28;20214;-69
2022/09/22 08:53:15;;;;;;;2.47;2.35;;;;;;;17.53;85.41;100387.59;5051544;28;20706;-71
2022/09/22 08:55:47;;;;;;;2.15;2.05;;;;;;;17.66;84.65;100381.38;5051943;28;20235;-70
2022/09/22 08:58:28;;;;;;;2.28;2.17;;;;;;;17.52;85.23;100344.75;5051718;28;20592;-71
2022/09/22 09:01:05;;;;;;;3.47;1.98;;;;;;;17.71;91.05;100367.38;5007512;28;20200;-71
2022/09/22 09:03:46;;;;;;;2.70;2.50;;;;;;;17.61;84.36;100389.31;5034758;28;20651;-70
2022/09/22 09:06:21;;;;;;;2.50;2.30;;;;;;;17.50;82.65;100378.00;5051592;28;20207;-70
2022/09/22 09:09:10;;;;;;;2.75;2.55;;;;;;;17.63;80.14;100379.66;5051584;28;20683;-69
2022/09/22 09:12:05;;;;;;;2.65;2.45;;;;;;;17.88;78.12;100376.81;5051376;28;20204;-69
2022/09/22 09:15:00;;;;;;;2.50;2.30;;;;;;;17.69;78.38;100371.72;5009183;28;20208;-70
2022/09/22 09:17:30;;;;;;;2.55;2.35;;;;;;;17.61;80.70;100349.97;4950669;29;20213;-72
2022/09/22 09:20:03;;;;;;;2.17;2.08;;;;;;;17.35;78.11;100365.91;4919009;29;20214;-71
2022/09/22 09:22:39;;;;;;;5.72;2.20;;;;;;;17.70;79.93;100372.59;4951091;29;20210;-70
2022/09/22 09:25:14;;;;;;;2.17;2.08;;;;;;;17.45;79.59;100324.72;4950955;28;20242;-71
2022/09/22 09:27:45;;;;;;;1.58;1.48;;;;;;;18.00;81.44;100364.44;4937269;29;20207;-75
2022/09/22 09:30:16;;;;;;;2.10;2.00;;;;;;;18.17;75.64;100362.50;4950744;29;20222;-70
2022/09/22 09:32:48;;;;;;;2.03;1.92;;;;;;;18.34;73.80;100355.28;4950762;29;20215;-71
2022/09/22 09:35:17;;;;;;;2.38;2.17;;;;;;;18.33;73.45;100353.53;4950635;29;20234;-69
2022/09/22 09:37:46;;;;;;;2.88;2.67;;;;;;;18.19;73.07;100328.38;4950617;29;20210;-71
2022/09/22 09:40:16;;;;;;;1.90;1.80;;;;;;;18.30;73.14;100350.97;4950491;29;20726;-70
2022/09/22 09:42:45;;;;;;;2.13;1.95;;;;;;;18.39;73.60;100352.63;4950384;29;20298;-70
2022/09/22 09:45:15;;;;;;;1.80;1.70;;;;;;;18.38;73.42;100322.00;4949712;29;20214;-70
2022/09/22 09:48:08;;;;;;;2.00;1.90;;;;;;;18.76;70.62;100353.88;4934482;29;20678;-71
2022/09/22 09:50:36;;;;;;;2.10;1.90;;;;;;;18.36;69.86;100330.78;4953018;28;20890;-69
2022/09/22 09:53:03;;;;;;;2.13;1.90;;;;;;;18.39;68.30;100346.50;4988944;28;20284;-70
2022/09/22 09:55:32;;;;;;;2.38;2.00;;;;;;;18.55;68.62;100358.59;5026098;28;20227;-71
2022/09/22 09:58:10;;;;;;;1.88;1.77;;;;;;;18.21;69.18;100288.09;5030643;28;20204;-71
2022/09/22 10:00:55;;;;;;;2.13;2.03;;;;;;;18.81;67.84;100351.22;5030856;28;20246;-72
2022/09/22 10:03:29;;;;;;;6.00;2.03;;;;;;;18.84;69.16;100335.41;5030130;28;20203;-73
2022/09/22 10:06:01;;;;;;;1.63;1.52;;;;;;;19.01;70.33;100364.94;5011945;28;20219;-72
2022/09/22 10:08:33;;;;;;;2.00;1.90;;;;;;;19.01;68.39;100351.81;5030824;28;20254;-71
2022/09/22 10:11:00;;;;;;;4.30;1.88;;;;;;;18.92;66.28;100351.91;5030699;28;20265;-68
2022/09/22 10:13:35;;;;;;;1.88;1.77;;;;;;;19.19;67.83;100353.28;5030451;28;20204;-71
2022/09/22 10:16:20;;;;;;;1.75;1.65;;;;;;;19.33;64.63;100354.78;5030615;28;20226;-68
2022/09/22 10:18:50;;;;;;;1.45;1.40;;;;;;;18.60;64.40;100315.59;5030592;28;20240;-71
2022/09/22 10:21:19;;;;;;;1.95;1.85;;;;;;;18.62;64.50;100307.72;5030733;28;20277;-72
2022/09/22 10:23:47;;;;;;;1.40;1.30;;;;;;;18.55;62.93;100314.78;5030692;28;20215;-71
2022/09/22 10:26:20;;;;;;;1.45;1.45;;;;;;;18.64;62.12;100329.56;5030619;28;20200;-70
2022/09/22 10:29:09;;;;;;;1.85;1.75;;;;;;;19.21;63.75;100330.44;5030388;28;20204;-70
2022/09/22 10:31:37;;;;;;;1.70;1.60;;;;;;;19.18;65.60;100334.00;5030444;28;20715;-74
2022/09/22 10:34:07;;;;;;;3.60;2.38;;;;;;;19.28;75.57;100301.41;5012014;28;20200;-74
2022/09/22 10:36:36;;;;;;;5.20;3.92;;;;;;;19.75;80.99;100328.66;5030273;28;20231;-71
2022/09/22 10:39:14;;;;;;;2.22;1.95;;;;;;;19.37;60.90;100283.75;5029666;28;20208;-72
2022/09/22 10:41:42;;;;;;;4.35;2.22;;;;;;;19.89;67.13;100315.25;5030435;28;20279;-69
2022/09/22 10:44:18;;;;;;;2.03;1.80;;;;;;;19.70;59.68;100322.59;5030434;28;20236;-70
2022/09/22 10:47:07;;;;;;;1.70;1.60;;;;;;;19.73;57.54;100330.44;5030268;28;20235;-70
2022/09/22 10:49:49;;;;;;;1.48;1.48;;;;;;;19.81;57.15;100323.28;5030428;28;20204;-70
2022/09/22 10:52:24;;;;;;;1.60;1.50;;;;;;;19.85;56.95;100316.19;5030334;28;20235;-70
2022/09/22 10:55:04;;;;;;;3.08;1.73;;;;;;;19.87;57.22;100309.16;5030579;28;20195;-70
2022/09/22 10:57:57;;;;;;;1.83;1.73;;;;;;;19.99;59.72;100304.50;5030376;28;20571;-70
2022/09/22 11:00:26;;;;;;;1.75;1.65;;;;;;;19.85;58.51;100284.63;4988486;28;20212;-70
2022/09/22 11:03:28;;;;;;;1.83;1.73;;;;;;;20.13;57.07;100313.00;4988533;28;20221;-70
2022/09/22 11:12:16;;;;;;;1.75;1.65;;;;;;;20.29;56.04;100276.72;4930956;29;20294;-71
2022/09/22 11:14:58;;;;;;;2.00;1.90;;;;;;;20.34;57.54;100300.31;4934130;29;20211;-70
2022/09/22 11:17:40;;;;;;;2.03;1.65;;;;;;;19.83;57.67;100284.66;4933890;29;20322;-70
2022/09/22 11:20:31;;;;;;;1.98;1.88;;;;;;;20.48;56.71;100293.84;4934197;29;20731;-71
2022/09/22 11:23:40;;;;;;;2.03;1.60;;;;;;;19.99;54.00;100286.09;4933980;29;20203;-71
2022/09/22 11:26:19;;;;;;;1.92;1.83;;;;;;;19.98;54.26;100289.59;4914782;29;20916;-71
2022/09/22 11:29:21;;;;;;;1.20;1.20;;;;;;;19.85;54.34;100288.13;4915021;29;20212;-70
2022/09/22 11:31:54;;;;;;;1.77;1.67;;;;;;;20.13;53.46;100284.03;4914840;29;20665;-70
2022/09/22 11:34:45;;;;;;;1.80;1.63;;;;;;;20.41;51.19;100288.75;4914869;29;20689;-70
2022/09/22 11:37:27;;;;;;;2.17;1.75;;;;;;;20.26;50.60;100280.22;4920110;29;20611;-70
2022/09/22 11:40:22;;;;;;;2.72;1.88;;;;;;;20.59;52.52;100277.81;4933783;29;20210;-71
2022/09/22 11:42:59;;;;;;;6.05;2.30;;;;;;;20.62;52.65;100289.13;4924060;29;20293;-70
2022/09/22 11:45:43;;;;;;;1.70;1.60;;;;;;;20.34;53.26;100277.47;4904872;29;20226;-69
2022/09/22 11:48:24;;;;;;;3.33;1.45;;;;;;;20.63;53.73;100268.94;4904608;29;20930;-69
2022/09/22 11:51:12;;;;;;;2.58;1.90;;;;;;;20.75;54.00;100273.94;4952738;29;20573;-69
2022/09/22 11:54:04;;;;;;;3.33;2.45;;;;;;;20.95;56.07;100278.72;4952868;29;20199;-71